Time;durP1;ratioP1;P1;durP2;ratioP2;P2;SDS_P1;SDS_P2;PMS_P1;PMS_P2;Temp;Humidity;BMP_temperature;BMP_pressure;BME280_temperature;BME280_humidity;BME280_pressure;Samples;Min_cycle;Max_cycle;Signal;HPM_P1;HPM_P2
2023/04/23 00:01:15;;;;;;;;;;;;;;;4.17;100.00;99825.38;5034187;28;803;-57
2023/04/23 00:03:42;;;;;;;;;;;;;;;4.26;100.00;99825.16;5034389;28;1886;-57
2023/04/23 00:06:09;;;;;;;;;;;;;;;4.40;100.00;99824.69;5034346;28;853;-57
2023/04/23 00:08:40;;;;;;;;;;;;;;;4.56;100.00;99827.31;5034464;28;959;-57
2023/04/23 00:11:08;;;;;;;;;;;;;;;4.68;100.00;99830.69;5049649;28;1420;-57
2023/04/23 00:13:35;;;;;;;;;;;;;;;4.77;100.00;99829.69;5053972;28;811;-57
2023/04/23 00:16:02;;;;;;;;;;;;;;;4.89;100.00;99826.78;5053869;28;779;-57
2023/04/23 00:18:28;;;;;;;;;;;;;;;4.99;100.00;99825.38;5053829;28;826;-57
2023/04/23 00:20:55;;;;;;;;;;;;;;;4.96;100.00;99826.13;5053919;28;818;-57
2023/04/23 00:23:21;;;;;;;;;;;;;;;4.93;100.00;99827.66;5053691;28;2005;-57
2023/04/23 00:25:48;;;;;;;;;;;;;;;4.77;100.00;99819.53;5053566;28;860;-57
2023/04/23 00:28:15;;;;;;;;;;;;;;;4.65;100.00;99817.75;5035717;28;1247;-57
2023/04/23 00:30:41;;;;;;;;;;;;;;;4.48;100.00;99818.16;5053587;28;853;-57
2023/04/23 00:33:07;;;;;;;;;;;;;;;4.32;100.00;99821.00;5053431;28;850;-57
2023/04/23 00:35:34;;;;;;;;;;;;;;;4.17;100.00;99824.59;5053631;28;866;-57
2023/04/23 00:38:01;;;;;;;;;;;;;;;4.13;100.00;99823.72;5053559;28;804;-57
2023/04/23 00:40:27;;;;;;;;;;;;;;;4.17;100.00;99821.84;5053692;28;850;-57
2023/04/23 00:42:55;;;;;;;;;;;;;;;4.15;100.00;99824.94;5053580;28;819;-57
2023/04/23 00:45:21;;;;;;;;;;;;;;;4.17;100.00;99811.69;5053550;28;1949;-57
2023/04/23 00:47:48;;;;;;;;;;;;;;;4.33;100.00;99819.81;5053453;28;788;-57
2023/04/23 00:50:14;;;;;;;;;;;;;;;4.52;100.00;99812.78;5053419;28;846;-57
2023/04/23 00:52:41;;;;;;;;;;;;;;;4.66;100.00;99805.63;5053615;28;818;-57
2023/04/23 00:55:08;;;;;;;;;;;;;;;4.82;100.00;99815.69;5053395;28;917;-57
2023/04/23 00:57:35;;;;;;;;;;;;;;;4.89;100.00;99808.41;5053362;28;748;-57
2023/04/23 01:00:04;;;;;;;;;;;;;;;4.96;100.00;99820.66;5053014;28;822;-57
2023/04/23 01:02:31;;;;;;;;;;;;;;;5.00;100.00;99811.34;5053141;28;822;-57
2023/04/23 01:04:58;;;;;;;;;;;;;;;5.03;100.00;99816.06;5052892;28;2027;-57
2023/04/23 01:07:26;;;;;;;;;;;;;;;5.00;100.00;99821.50;5051733;28;1444;-57
2023/04/23 01:09:53;;;;;;;;;;;;;;;4.97;100.00;99812.06;5045718;28;1394;-57
2023/04/23 01:12:19;;;;;;;;;;;;;;;4.95;100.00;99811.66;5032872;28;822;-57
2023/04/23 01:14:46;;;;;;;;;;;;;;;4.88;100.00;99815.03;5032856;28;866;-57
2023/04/23 01:17:13;;;;;;;;;;;;;;;4.89;100.00;99813.09;5032845;28;897;-57
2023/04/23 01:19:40;;;;;;;;;;;;;;;4.89;100.00;99800.19;5032958;28;811;-57
2023/04/23 01:22:10;;;;;;;;;;;;;;;4.95;100.00;99808.91;5032978;28;834;-57
2023/04/23 01:24:38;;;;;;;;;;;;;;;5.01;100.00;99798.41;5032497;28;1976;-57
2023/04/23 01:27:05;;;;;;;;;;;;;;;5.16;100.00;99807.69;5032595;28;838;-57
2023/04/23 01:29:32;;;;;;;;;;;;;;;5.30;100.00;99811.44;5032517;28;834;-57
2023/04/23 01:31:58;;;;;;;;;;;;;;;5.22;100.00;99806.22;5032496;28;795;-57
2023/04/23 01:34:25;;;;;;;;;;;;;;;5.11;100.00;99806.81;5031186;28;1287;-57
2023/04/23 01:36:53;;;;;;;;;;;;;;;5.09;100.00;99813.81;5032354;28;862;-57
2023/04/23 01:39:20;;;;;;;;;;;;;;;5.07;100.00;99816.13;5032404;28;803;-57
2023/04/23 01:41:47;;;;;;;;;;;;;;;5.05;100.00;99821.19;5032236;28;878;-57
2023/04/23 01:44:13;;;;;;;;;;;;;;;5.02;100.00;99819.97;5032223;28;1951;-57
2023/04/23 01:46:40;;;;;;;;;;;;;;;4.97;100.00;99816.75;5032189;28;864;-57
2023/04/23 01:49:07;;;;;;;;;;;;;;;4.98;100.00;99819.13;5032239;28;834;-57
2023/04/23 01:51:34;;;;;;;;;;;;;;;5.01;100.00;99820.34;5032287;28;870;-57
2023/04/23 01:54:01;;;;;;;;;;;;;;;5.08;100.00;99815.78;5032162;28;803;-57
2023/04/23 01:56:29;;;;;;;;;;;;;;;5.08;100.00;99813.03;5014289;28;2185;-57
2023/04/23 01:58:55;;;;;;;;;;;;;;;5.13;100.00;99816.63;5032058;28;815;-57
2023/04/23 02:01:22;;;;;;;;;;;;;;;5.16;100.00;99821.38;5031947;28;845;-57
2023/04/23 02:03:49;;;;;;;;;;;;;;;5.18;100.00;99819.06;5031974;28;1968;-57
2023/04/23 02:06:16;;;;;;;;;;;;;;;5.24;100.00;99825.81;5031854;28;856;-57
2023/04/23 02:08:43;;;;;;;;;;;;;;;5.21;100.00;99823.81;5031946;28;931;-57
2023/04/23 02:11:09;;;;;;;;;;;;;;;5.11;100.00;99825.22;5047670;28;1253;-57
2023/04/23 02:13:36;;;;;;;;;;;;;;;5.04;100.00;99828.63;5051667;28;832;-57
2023/04/23 02:16:02;;;;;;;;;;;;;;;4.99;100.00;99836.34;5051168;28;841;-57
2023/04/23 02:18:28;;;;;;;;;;;;;;;4.88;100.00;99834.19;5051555;28;860;-57
2023/04/23 02:20:56;;;;;;;;;;;;;;;4.81;100.00;99836.03;5051755;28;803;-57
2023/04/23 02:23:22;;;;;;;;;;;;;;;4.70;100.00;99836.59;5051447;28;865;-57
2023/04/23 02:25:51;;;;;;;;;;;;;;;4.50;100.00;99835.84;5051653;28;885;-57
2023/04/23 02:28:16;;;;;;;;;;;;;;;4.35;100.00;99847.63;5051415;28;920;-57
2023/04/23 02:30:45;;;;;;;;;;;;;;;4.41;100.00;99848.13;5051599;28;815;-57
2023/04/23 02:33:12;;;;;;;;;;;;;;;4.46;100.00;99834.19;5051398;28;826;-57
2023/04/23 02:35:38;;;;;;;;;;;;;;;4.47;100.00;99843.97;5051675;28;842;-57
2023/04/23 02:38:04;;;;;;;;;;;;;;;4.45;100.00;99847.06;5051400;28;794;-57
2023/04/23 02:40:31;;;;;;;;;;;;;;;4.42;100.00;99847.00;5051519;28;853;-57
2023/04/23 02:42:58;;;;;;;;;;;;;;;4.25;100.00;99838.06;5051687;28;799;-57
2023/04/23 02:45:24;;;;;;;;;;;;;;;4.16;100.00;99842.13;5051586;28;1910;-57
2023/04/23 02:47:52;;;;;;;;;;;;;;;4.15;100.00;99841.34;5051638;28;837;-57
2023/04/23 02:50:18;;;;;;;;;;;;;;;4.01;100.00;99841.03;5051538;28;842;-57
2023/04/23 02:52:46;;;;;;;;;;;;;;;3.83;100.00;99838.69;5051413;28;828;-57
2023/04/23 02:55:13;;;;;;;;;;;;;;;3.82;100.00;99837.13;5051410;28;894;-57
2023/04/23 02:57:40;;;;;;;;;;;;;;;3.91;100.00;99839.66;5051521;28;861;-57
2023/04/23 03:00:07;;;;;;;;;;;;;;;4.05;100.00;99839.97;5051434;28;807;-57
2023/04/23 03:02:34;;;;;;;;;;;;;;;4.21;100.00;99839.13;5051353;28;814;-57
2023/04/23 03:05:00;;;;;;;;;;;;;;;4.32;100.00;99836.63;5033478;28;1890;-57
2023/04/23 03:07:27;;;;;;;;;;;;;;;4.43;100.00;99837.63;5051418;28;870;-57
2023/04/23 03:09:53;;;;;;;;;;;;;;;4.48;100.00;99842.81;5051280;28;1308;-57
2023/04/23 03:12:20;;;;;;;;;;;;;;;4.53;100.00;99837.06;5051325;28;857;-57
2023/04/23 03:14:46;;;;;;;;;;;;;;;4.63;100.00;99847.44;5051686;28;817;-57
2023/04/23 03:17:13;;;;;;;;;;;;;;;4.70;100.00;99841.28;5051009;28;811;-57
2023/04/23 03:19:40;;;;;;;;;;;;;;;4.70;100.00;99839.34;5051065;28;783;-57
2023/04/23 03:22:06;;;;;;;;;;;;;;;4.75;100.00;99841.00;5050914;28;865;-57
2023/04/23 03:24:34;;;;;;;;;;;;;;;4.78;100.00;99845.75;5032927;28;1910;-57
2023/04/23 03:27:02;;;;;;;;;;;;;;;4.78;100.00;99847.69;5052787;28;1069;-57
2023/04/23 03:29:28;;;;;;;;;;;;;;;4.78;100.00;99850.44;5055298;28;834;-57
2023/04/23 03:31:55;;;;;;;;;;;;;;;4.78;100.00;99853.97;5054687;28;827;-57
2023/04/23 03:34:22;;;;;;;;;;;;;;;4.80;100.00;99851.66;5054577;28;870;-57
2023/04/23 03:36:49;;;;;;;;;;;;;;;4.81;100.00;99852.47;5054592;28;862;-57
2023/04/23 03:39:16;;;;;;;;;;;;;;;4.81;100.00;99849.72;5054449;28;910;-57
2023/04/23 03:41:43;;;;;;;;;;;;;;;4.81;100.00;99849.72;5054521;28;823;-57
2023/04/23 03:44:09;;;;;;;;;;;;;;;4.81;100.00;99850.50;5054324;28;1985;-57
2023/04/23 03:46:35;;;;;;;;;;;;;;;4.82;100.00;99860.31;5054395;28;882;-57
2023/04/23 03:49:02;;;;;;;;;;;;;;;4.85;100.00;99856.06;5054304;28;830;-57
2023/04/23 03:51:28;;;;;;;;;;;;;;;4.87;100.00;99860.00;5054248;28;858;-57
2023/04/23 03:53:55;;;;;;;;;;;;;;;4.90;100.00;99855.75;5054173;28;847;-57
2023/04/23 03:56:21;;;;;;;;;;;;;;;4.98;100.00;99854.72;5054265;28;822;-57
2023/04/23 03:58:48;;;;;;;;;;;;;;;5.06;100.00;99859.19;5054163;28;802;-57
2023/04/23 04:01:15;;;;;;;;;;;;;;;5.13;100.00;99861.25;5054147;28;826;-57
2023/04/23 04:03:42;;;;;;;;;;;;;;;5.19;100.00;99869.97;5053984;28;1918;-58
2023/04/23 04:06:09;;;;;;;;;;;;;;;5.23;100.00;99874.38;5054045;28;882;-57
2023/04/23 04:08:35;;;;;;;;;;;;;;;5.30;100.00;99870.97;5036024;28;1240;-58
2023/04/23 04:11:02;;;;;;;;;;;;;;;5.38;100.00;99875.41;5053663;28;1373;-58
2023/04/23 04:13:51;;;;;;;;;;;;;;;5.47;100.00;99883.38;5053936;28;979;-57
2023/04/23 04:16:19;;;;;;;;;;;;;;;5.53;100.00;99885.44;5052514;28;1350;-57
2023/04/23 04:18:45;;;;;;;;;;;;;;;5.61;100.00;99888.31;5053754;28;859;-58
2023/04/23 04:21:12;;;;;;;;;;;;;;;5.69;100.00;99887.25;5052417;28;1294;-57
2023/04/23 04:23:39;;;;;;;;;;;;;;;5.73;100.00;99891.63;5053630;28;2374;-58
2023/04/23 04:26:06;;;;;;;;;;;;;;;5.79;100.00;99892.13;5053673;28;882;-58
2023/04/23 04:28:35;;;;;;;;;;;;;;;5.85;100.00;99884.41;5053665;28;914;-58
2023/04/23 04:31:01;;;;;;;;;;;;;;;5.97;100.00;99883.41;5053592;28;855;-58
2023/04/23 04:33:28;;;;;;;;;;;;;;;6.07;100.00;99889.06;5053427;28;815;-58
2023/04/23 04:35:55;;;;;;;;;;;;;;;6.20;100.00;99891.59;5053721;28;889;-58
2023/04/23 04:38:21;;;;;;;;;;;;;;;6.31;100.00;99898.78;5053159;28;878;-57
2023/04/23 04:40:49;;;;;;;;;;;;;;;6.43;100.00;99894.25;5053387;28;826;-57
2023/04/23 04:43:16;;;;;;;;;;;;;;;6.58;100.00;99896.03;5053322;28;882;-57
2023/04/23 04:45:43;;;;;;;;;;;;;;;6.78;100.00;99904.09;5053226;28;1885;-57
2023/04/23 04:48:10;;;;;;;;;;;;;;;7.07;100.00;99899.75;5053301;28;865;-57
2023/04/23 04:50:36;;;;;;;;;;;;;;;7.27;100.00;99906.59;5053395;28;842;-57
2023/04/23 04:53:03;;;;;;;;;;;;;;;7.38;100.00;99912.22;5053180;28;830;-57
2023/04/23 04:55:30;;;;;;;;;;;;;;;7.51;100.00;99899.78;5053088;28;822;-58
2023/04/23 04:57:56;;;;;;;;;;;;;;;7.76;100.00;99907.44;5053058;28;870;-57
2023/04/23 05:00:24;;;;;;;;;;;;;;;7.95;100.00;99907.19;5052956;28;862;-57
2023/04/23 05:02:51;;;;;;;;;;;;;;;8.04;100.00;99906.88;5053017;28;889;-57
2023/04/23 05:05:18;;;;;;;;;;;;;;;8.14;100.00;99908.13;5053141;28;1878;-57
2023/04/23 05:07:45;;;;;;;;;;;;;;;8.20;100.00;99917.59;5052870;28;843;-57
2023/04/23 05:10:13;;;;;;;;;;;;;;;8.10;100.00;99908.09;5052868;28;1278;-57
2023/04/23 05:12:42;;;;;;;;;;;;;;;8.17;100.00;99915.59;5052948;28;799;-57
2023/04/23 05:15:08;;;;;;;;;;;;;;;8.37;100.00;99921.66;5052723;28;894;-57
2023/04/23 05:17:35;;;;;;;;;;;;;;;8.59;100.00;99919.81;5052696;28;858;-57
2023/04/23 05:20:01;;;;;;;;;;;;;;;8.69;100.00;99918.31;5052609;28;842;-57
2023/04/23 05:22:29;;;;;;;;;;;;;;;8.74;100.00;99921.47;5052549;28;870;-57
2023/04/23 05:24:55;;;;;;;;;;;;;;;8.85;100.00;99926.22;5052460;28;1910;-57
2023/04/23 05:27:22;;;;;;;;;;;;;;;9.03;100.00;99924.34;5052390;28;901;-57
2023/04/23 05:29:49;;;;;;;;;;;;;;;9.32;100.00;99927.16;5052492;28;783;-57
2023/04/23 05:32:15;;;;;;;;;;;;;;;9.62;100.00;99929.56;5052427;28;838;-57
2023/04/23 05:34:43;;;;;;;;;;;;;;;9.79;100.00;99931.56;5052261;28;829;-57
2023/04/23 05:37:09;;;;;;;;;;;;;;;9.92;100.00;99926.44;5034474;28;1279;-57
2023/04/23 05:39:36;;;;;;;;;;;;;;;10.10;100.00;99928.41;5052458;28;819;-57
2023/04/23 05:42:02;;;;;;;;;;;;;;;10.27;100.00;99921.28;5034301;28;1331;-57
2023/04/23 05:44:29;;;;;;;;;;;;;;;10.52;100.00;99929.53;5052092;28;1886;-57
2023/04/23 05:46:55;;;;;;;;;;;;;;;11.04;100.00;99930.53;5052132;28;870;-57
2023/04/23 05:49:22;;;;;;;;;;;;;;;11.47;100.00;99926.72;5051804;28;834;-57
2023/04/23 05:51:49;;;;;;;;;;;;;;;11.93;100.00;99933.94;5050148;28;2008;-57
2023/04/23 05:54:16;;;;;;;;;;;;;;;12.43;100.00;99933.44;5034127;28;1386;-57
2023/04/23 05:56:42;;;;;;;;;;;;;;;13.31;100.00;99932.03;5052268;28;909;-57
2023/04/23 05:59:09;;;;;;;;;;;;;;;14.38;100.00;99925.94;5051912;28;775;-57
2023/04/23 06:01:35;;;;;;;;;;;;;;;15.34;100.00;99930.78;5051915;28;849;-56
2023/04/23 06:04:02;;;;;;;;;;;;;;;16.16;100.00;99930.88;5051810;28;1949;-57
2023/04/23 06:06:28;;;;;;;;;;;;;;;16.42;100.00;99934.56;5051830;28;858;-56
2023/04/23 06:08:54;;;;;;;;;;;;;;;16.14;100.00;99934.06;5051919;28;882;-56
2023/04/23 06:11:21;;;;;;;;;;;;;;;16.30;97.80;99930.47;5051570;28;1209;-57
2023/04/23 06:13:48;;;;;;;;;;;;;;;15.99;98.79;99933.66;5051764;28;831;-56
2023/04/23 06:16:15;;;;;;;;;;;;;;;16.21;100.00;99933.09;5051607;28;811;-57
2023/04/23 06:18:41;;;;;;;;;;;;;;;16.77;98.72;99926.41;5051562;28;835;-56
2023/04/23 06:21:08;;;;;;;;;;;;;;;16.47;93.63;99931.22;5051661;28;819;-57
2023/04/23 06:23:34;;;;;;;;;;;;;;;15.99;95.42;99939.22;5051506;28;1967;-57
2023/04/23 06:26:01;;;;;;;;;;;;;;;16.04;97.64;99932.34;5051546;28;830;-57
2023/04/23 06:28:27;;;;;;;;;;;;;;;16.13;100.00;99935.31;5051597;28;874;-56
2023/04/23 06:30:54;;;;;;;;;;;;;;;16.34;98.83;99928.38;5051495;28;890;-57
2023/04/23 06:33:20;;;;;;;;;;;;;;;16.30;99.47;99931.28;5051402;28;866;-57
2023/04/23 06:35:47;;;;;;;;;;;;;;;16.21;98.86;99930.31;5051430;28;957;-57
2023/04/23 06:38:13;;;;;;;;;;;;;;;15.97;100.00;99930.53;5051432;28;862;-57
2023/04/23 06:40:40;;;;;;;;;;;;;;;15.82;97.44;99932.88;5051440;28;881;-57
2023/04/23 06:43:07;;;;;;;;;;;;;;;15.95;99.76;99935.75;5051496;28;803;-57
2023/04/23 06:45:34;;;;;;;;;;;;;;;15.96;94.60;99930.94;5051316;28;1886;-57
2023/04/23 06:48:00;;;;;;;;;;;;;;;16.26;95.34;99929.81;5051290;28;889;-57
2023/04/23 06:50:27;;;;;;;;;;;;;;;17.19;89.93;99930.00;5051251;28;862;-57
2023/04/23 06:52:55;;;;;;;;;;;;;;;18.26;83.35;99931.38;5051280;28;802;-57
2023/04/23 06:55:25;;;;;;;;;;;;;;;19.32;77.50;99925.16;5051201;28;886;-57
2023/04/23 06:57:54;;;;;;;;;;;;;;;20.65;71.13;99930.91;5051288;28;834;-57
2023/04/23 07:00:24;;;;;;;;;;;;;;;21.50;64.96;99936.69;5051455;28;869;-57
2023/04/23 07:02:50;;;;;;;;;;;;;;;22.05;53.69;99930.00;5054254;28;840;-57
2023/04/23 07:05:17;;;;;;;;;;;;;;;22.44;53.56;99932.88;5055088;28;1878;-57
2023/04/23 07:07:44;;;;;;;;;;;;;;;22.85;47.70;99930.31;5055328;28;830;-57
2023/04/23 07:10:13;;;;;;;;;;;;;;;23.15;46.68;99925.50;5054764;28;1168;-58
2023/04/23 07:12:40;;;;;;;;;;;;;;;23.73;43.49;99927.94;5055101;28;914;-58
2023/04/23 07:15:07;;;;;;;;;;;;;;;24.36;42.22;99924.69;5055313;28;810;-57
2023/04/23 07:17:34;;;;;;;;;;;;;;;24.47;40.37;99921.97;5054888;28;806;-57
2023/04/23 07:20:05;;;;;;;;;;;;;;;24.38;38.13;99924.97;5054910;28;850;-57
2023/04/23 07:22:32;;;;;;;;;;;;;;;23.90;37.42;99926.16;5055044;28;906;-57
2023/04/23 07:24:58;;;;;;;;;;;;;;;23.71;39.31;99925.59;5053436;28;2156;-57
2023/04/23 07:27:25;;;;;;;;;;;;;;;23.65;38.38;99928.34;5055052;28;819;-57
2023/04/23 07:29:52;;;;;;;;;;;;;;;24.04;39.51;99925.31;5055048;28;885;-57
2023/04/23 07:32:20;;;;;;;;;;;;;;;24.20;37.01;99929.63;5054680;28;860;-57
2023/04/23 07:34:47;;;;;;;;;;;;;;;24.04;37.23;99925.31;5054674;28;870;-57
2023/04/23 07:37:14;;;;;;;;;;;;;;;24.01;36.48;99925.53;5054596;28;858;-57
2023/04/23 07:39:40;;;;;;;;;;;;;;;24.08;36.71;99925.09;5036524;28;1599;-57
2023/04/23 07:42:07;;;;;;;;;;;;;;;24.57;37.03;99916.97;5054793;28;862;-57
2023/04/23 07:44:33;;;;;;;;;;;;;;;24.82;35.38;99919.03;5054419;28;1938;-56
2023/04/23 07:46:59;;;;;;;;;;;;;;;24.46;35.68;99917.59;5054287;28;868;-57
2023/04/23 07:49:27;;;;;;;;;;;;;;;24.25;34.79;99914.78;5054537;28;800;-57
2023/04/23 07:51:53;;;;;;;;;;;;;;;24.41;35.65;99918.31;5054317;28;799;-56
2023/04/23 07:54:20;;;;;;;;;;;;;;;24.63;35.72;99917.81;5054273;28;876;-57
2023/04/23 07:56:46;;;;;;;;;;;;;;;25.10;35.37;99912.09;5054541;28;831;-57
2023/04/23 07:59:13;;;;;;;;;;;;;;;25.06;34.51;99910.25;5054142;28;806;-57
2023/04/23 08:01:40;;;;;;;;;;;;;;;25.25;35.38;99912.78;5054181;28;827;-57
2023/04/23 08:04:07;;;;;;;;;;;;;;;25.58;33.42;99914.28;5036050;28;1890;-57
2023/04/23 08:06:35;;;;;;;;;;;;;;;25.14;35.25;99915.47;5054089;28;854;-56
2023/04/23 08:09:05;;;;;;;;;;;;;;;25.18;33.97;99913.22;5036134;28;1478;-56
2023/04/23 08:11:32;;;;;;;;;;;;;;;25.17;34.14;99917.28;5053874;28;1189;-56
2023/04/23 08:14:00;;;;;;;;;;;;;;;24.79;32.63;99907.94;5052945;28;807;-57
2023/04/23 08:16:27;;;;;;;;;;;;;;;24.12;34.55;99907.97;5053802;28;823;-57
2023/04/23 08:18:54;;;;;;;;;;;;;;;24.83;36.25;99909.28;5053826;28;854;-56
2023/04/23 08:21:21;;;;;;;;;;;;;;;25.27;32.77;99905.31;5035886;28;893;-56
2023/04/23 08:23:47;;;;;;;;;;;;;;;25.74;33.27;99901.53;5053668;28;1914;-57
2023/04/23 08:26:14;;;;;;;;;;;;;;;26.16;31.88;99902.78;5053659;28;842;-57
2023/04/23 08:28:41;;;;;;;;;;;;;;;25.52;34.16;99904.97;5053626;28;823;-57
2023/04/23 08:31:07;;;;;;;;;;;;;;;24.46;34.70;99895.78;5053597;28;925;-57
2023/04/23 08:33:32;;;;;;;;;;;;;;;24.11;35.32;99904.38;5053897;28;913;-57
2023/04/23 08:35:59;;;;;;;;;;;;;;;24.39;34.32;99899.03;5053469;28;905;-57
2023/04/23 08:38:25;;;;;;;;;;;;;;;24.58;34.10;99902.38;5053512;28;816;-57
2023/04/23 08:40:55;;;;;;;;;;;;;;;24.76;34.65;99903.31;5053470;28;857;-57
2023/04/23 08:43:27;;;;;;;;;;;;;;;23.84;35.56;99905.53;5053366;28;795;-57
2023/04/23 08:45:55;;;;;;;;;;;;;;;22.91;36.92;99905.06;5053448;28;1953;-57
2023/04/23 08:48:22;;;;;;;;;;;;;;;23.56;36.10;99899.47;5053462;28;898;-57
2023/04/23 08:50:48;;;;;;;;;;;;;;;23.73;36.06;99896.91;5053445;28;839;-56
2023/04/23 08:53:18;;;;;;;;;;;;;;;22.42;35.74;99907.22;5053465;28;904;-57
2023/04/23 08:55:47;;;;;;;;;;;;;;;21.49;39.10;99895.00;5035293;28;1311;-57
2023/04/23 08:58:14;;;;;;;;;;;;;;;22.18;38.88;99893.16;5053087;28;815;-57
2023/04/23 09:00:41;;;;;;;;;;;;;;;22.80;36.43;99885.91;5052959;28;934;-57
2023/04/23 09:03:08;;;;;;;;;;;;;;;23.49;36.24;99877.31;5053345;28;810;-57
2023/04/23 09:05:35;;;;;;;;;;;;;;;23.69;35.90;99879.41;5052974;28;1891;-57
2023/04/23 09:08:02;;;;;;;;;;;;;;;22.42;36.88;99879.06;5051720;28;1216;-57
2023/04/23 09:10:28;;;;;;;;;;;;;;;20.94;39.47;99885.47;5052628;28;1272;-57
2023/04/23 09:12:55;;;;;;;;;;;;;;;21.02;41.04;99888.75;5052826;28;851;-56
2023/04/23 09:15:22;;;;;;;;;;;;;;;21.97;38.93;99875.31;5052749;28;803;-57
2023/04/23 09:17:48;;;;;;;;;;;;;;;22.68;38.31;99879.31;5051477;28;1204;-57
2023/04/23 09:20:15;;;;;;;;;;;;;;;23.36;38.25;99874.81;5052706;28;1066;-56
2023/04/23 09:22:44;;;;;;;;;;;;;;;23.19;36.37;99880.97;5052551;28;931;-56
2023/04/23 09:25:11;;;;;;;;;;;;;;;23.29;38.43;99864.72;5052607;28;1914;-57
2023/04/23 09:27:38;;;;;;;;;;;;;;;23.44;36.89;99867.50;5052616;28;803;-57
2023/04/23 09:30:07;;;;;;;;;;;;;;;22.92;37.93;99867.94;5052484;28;791;-57
2023/04/23 09:32:37;;;;;;;;;;;;;;;23.17;37.90;99869.41;5052454;28;952;-57
2023/04/23 09:35:07;;;;;;;;;;;;;;;23.62;38.05;99872.91;5052359;28;842;-57
2023/04/23 09:37:35;;;;;;;;;;;;;;;22.68;36.97;99868.03;5052324;28;847;-57
2023/04/23 10:08:51;;;;;;;;;;;;;;;19.79;41.91;99864.44;6007070;22;1506;-68
2023/04/23 10:11:18;;;;;;;;;;;;;;;19.93;41.66;99860.28;5031887;28;877;-69
2023/04/23 10:13:44;;;;;;;;;;;;;;;20.43;41.30;99858.06;5031967;28;833;-69
2023/04/23 10:16:11;;;;;;;;;;;;;;;20.67;40.66;99861.03;5031864;28;803;-69
2023/04/23 10:18:38;;;;;;;;;;;;;;;20.63;40.18;99856.84;5031801;28;858;-69
2023/04/23 10:21:08;;;;;;;;;;;;;;;20.74;41.19;99849.50;5031822;28;830;-68
2023/04/23 10:23:37;;;;;;;;;;;;;;;20.68;41.03;99847.78;5031791;28;842;-69
2023/04/23 10:26:04;;;;;;;;;;;;;;;20.68;41.08;99842.16;5031666;28;1948;-69
2023/04/23 10:28:32;;;;;;;;;;;;;;;20.99;41.34;99839.09;5031706;28;818;-68
2023/04/23 10:31:02;;;;;;;;;;;;;;;21.32;40.72;99836.31;5031701;28;853;-68
2023/04/23 10:33:30;;;;;;;;;;;;;;;21.54;41.00;99830.44;5013837;28;1359;-68
2023/04/23 10:35:57;;;;;;;;;;;;;;;21.63;40.42;99831.63;5031595;28;834;-68
2023/04/23 10:38:27;;;;;;;;;;;;;;;21.13;41.63;99832.81;5031344;28;834;-69
2023/04/23 10:40:55;;;;;;;;;;;;;;;20.46;41.94;99831.88;5031598;28;881;-69
2023/04/23 10:43:23;;;;;;;;;;;;;;;20.05;42.91;99834.06;5031473;28;815;-69
2023/04/23 10:45:50;;;;;;;;;;;;;;;19.84;43.52;99835.00;5013792;28;1886;-69
2023/04/23 10:48:16;;;;;;;;;;;;;;;19.70;43.49;99833.59;5031475;28;885;-69
2023/04/23 10:50:43;;;;;;;;;;;;;;;19.58;43.83;99826.81;5031492;28;885;-68
2023/04/23 10:53:17;;;;;;;;;;;;;;;19.31;43.96;99833.94;5031490;28;853;-68
2023/04/23 10:55:47;;;;;;;;;;;;;;;18.81;45.07;99835.88;5031417;28;909;-68
2023/04/23 10:58:13;;;;;;;;;;;;;;;18.13;48.18;99833.53;5013565;28;1363;-68
2023/04/23 11:00:42;;;;;;;;;;;;;;;16.99;54.23;99832.47;5031453;28;866;-66
2023/04/23 11:03:27;;;;;;;;;;;;;;;15.21;73.01;99836.81;5031535;28;857;-62
2023/04/23 11:05:54;;;;;;;;;;;;;;;13.93;96.10;99849.31;5031255;28;1890;-63
2023/04/23 11:08:22;;;;;;;;;;;;;;;13.24;100.00;99848.84;5031454;28;920;-58
2023/04/23 11:10:56;;;;;;;;;;;;;;;12.76;100.00;99842.38;5013463;28;1265;-57
2023/04/23 11:13:24;;;;;;;;;;;;;;;12.68;100.00;99846.44;5031742;28;914;-58
2023/04/23 11:16:09;;;;;;;;;;;;;;;13.12;100.00;99832.75;5031657;28;826;-60
2023/04/23 11:18:56;;;;;;;;;;;;;;;14.05;100.00;99839.59;5031111;28;814;-57
2023/04/23 11:21:43;;;;;;;;;;;;;;;15.12;100.00;99828.25;5031174;28;806;-57
2023/04/23 11:24:10;;;;;;;;;;;;;;;16.11;100.00;99818.66;5031132;28;2247;-58
2023/04/23 11:26:37;;;;;;;;;;;;;;;15.57;100.00;99830.34;5031112;28;905;-58
2023/04/23 11:29:05;;;;;;;;;;;;;;;14.96;100.00;99817.13;5031155;28;811;-58
2023/04/23 11:31:32;;;;;;;;;;;;;;;14.83;100.00;99816.97;5031029;28;881;-59
2023/04/23 11:33:59;;;;;;;;;;;;;;;14.85;100.00;99823.69;5031189;28;814;-59
2023/04/23 11:36:27;;;;;;;;;;;;;;;14.82;100.00;99813.41;5030990;28;968;-59
2023/04/23 11:38:55;;;;;;;;;;;;;;;14.84;100.00;99824.13;5013456;28;918;-59
2023/04/23 11:41:22;;;;;;;;;;;;;;;14.85;100.00;99820.91;5030999;28;823;-59
2023/04/23 11:43:48;;;;;;;;;;;;;;;14.95;100.00;99827.44;5013205;28;1894;-59
2023/04/23 11:46:15;;;;;;;;;;;;;;;15.00;100.00;99823.34;5030926;28;835;-60
2023/04/23 11:48:41;;;;;;;;;;;;;;;15.02;100.00;99826.50;5031890;28;831;-60
2023/04/23 11:51:08;;;;;;;;;;;;;;;15.18;100.00;99829.31;5034701;28;849;-60
2023/04/23 11:53:35;;;;;;;;;;;;;;;15.43;100.00;99828.72;5034720;28;861;-60
2023/04/23 11:56:04;;;;;;;;;;;;;;;16.00;100.00;99826.53;5034435;28;862;-59
2023/04/23 11:58:30;;;;;;;;;;;;;;;16.94;100.00;99828.25;5034378;28;900;-60
2023/04/23 12:01:01;;;;;;;;;;;;;;;19.12;100.00;99824.69;5034360;28;822;-61
2023/04/23 12:03:28;;;;;;;;;;;;;;;20.77;100.00;99814.81;5034549;28;873;-61
2023/04/23 12:05:55;;;;;;;;;;;;;;;21.46;100.00;99809.56;5034521;28;1947;-62
2023/04/23 12:08:22;;;;;;;;;;;;;;;21.46;100.00;99808.78;5034618;28;1055;-62
2023/04/23 12:10:53;;;;;;;;;;;;;;;21.23;95.99;99807.47;5051642;28;1296;-62
2023/04/23 12:13:23;;;;;;;;;;;;;;;22.44;94.00;99811.78;5054092;28;822;-62
2023/04/23 12:15:56;;;;;;;;;;;;;;;24.05;90.47;99805.47;5053933;28;882;-62
2023/04/23 12:18:30;;;;;;;;;;;;;;;24.82;81.89;99802.41;5054129;28;810;-61
2023/04/23 12:21:03;;;;;;;;;;;;;;;25.40;79.32;99814.38;5053890;28;892;-61
2023/04/23 12:23:32;;;;;;;;;;;;;;;25.58;77.15;99804.72;5053862;28;798;-62
2023/04/23 12:25:58;;;;;;;;;;;;;;;25.76;72.11;99802.72;5053692;28;1906;-63
2023/04/23 12:28:26;;;;;;;;;;;;;;;25.44;68.53;99803.59;5053736;28;853;-62
2023/04/23 12:30:53;;;;;;;;;;;;;;;25.61;67.51;99809.34;5053668;28;837;-62
2023/04/23 12:33:19;;;;;;;;;;;;;;;25.60;64.13;99813.44;5053876;28;814;-63
2023/04/23 12:35:52;;;;;;;;;;;;;;;24.36;64.01;99815.28;5053468;28;889;-65
2023/04/23 12:38:23;;;;;;;;;;;;;;;22.33;62.87;99820.03;5053610;28;869;-68
2023/04/23 12:40:50;;;;;;;;;;;;;;;20.28;65.04;99820.69;5053404;28;921;-66
2023/04/23 12:43:16;;;;;;;;;;;;;;;19.95;69.31;99813.66;5053407;28;850;-67
2023/04/23 12:45:42;;;;;;;;;;;;;;;21.34;66.07;99808.50;5053353;28;1913;-67
2023/04/23 12:48:09;;;;;;;;;;;;;;;21.54;62.92;99805.13;5053307;28;844;-68
2023/04/23 12:50:36;;;;;;;;;;;;;;;19.83;69.10;99800.56;5053336;28;846;-67
2023/04/23 12:53:03;;;;;;;;;;;;;;;18.21;77.82;99808.88;5053306;28;842;-65
2023/04/23 12:55:29;;;;;;;;;;;;;;;16.28;88.84;99813.00;5053276;28;802;-63
2023/04/23 12:57:57;;;;;;;;;;;;;;;15.19;97.29;99813.38;5053141;28;818;-64
2023/04/23 13:00:24;;;;;;;;;;;;;;;14.99;100.00;99813.47;5052652;28;862;-63
2023/04/23 13:02:50;;;;;;;;;;;;;;;14.89;100.00;99807.72;5053148;28;834;-63
2023/04/23 13:05:17;;;;;;;;;;;;;;;14.83;100.00;99803.06;5052827;28;1886;-63
2023/04/23 13:07:43;;;;;;;;;;;;;;;14.94;100.00;99803.63;5053062;28;920;-63
2023/04/23 13:10:10;;;;;;;;;;;;;;;15.03;100.00;99801.03;5052877;28;1407;-62
2023/04/23 13:12:37;;;;;;;;;;;;;;;15.09;100.00;99798.50;5053044;28;806;-63
2023/04/23 13:15:05;;;;;;;;;;;;;;;14.79;100.00;99792.03;5053085;28;806;-62
2023/04/23 13:17:31;;;;;;;;;;;;;;;14.29;100.00;99782.75;5052705;28;831;-61
2023/04/23 13:19:58;;;;;;;;;;;;;;;14.38;100.00;99775.78;5052810;28;873;-61
2023/04/23 13:22:27;;;;;;;;;;;;;;;14.67;100.00;99776.00;5052750;28;834;-61
2023/04/23 13:24:57;;;;;;;;;;;;;;;15.20;100.00;99771.19;5052668;28;1909;-61
2023/04/23 13:27:28;;;;;;;;;;;;;;;16.08;100.00;99754.59;5052579;28;818;-61
2023/04/23 13:29:56;;;;;;;;;;;;;;;17.29;100.00;99749.34;5052771;28;802;-62
2023/04/23 13:32:23;;;;;;;;;;;;;;;20.02;100.00;99756.47;5052999;28;803;-62